createdAt,value
2022-10-13T00:01:10.875Z,15.27
2022-10-13T00:03:41.917Z,13.87
2022-10-13T00:06:11.726Z,15.13
2022-10-13T00:08:40.967Z,14.83
2022-10-13T00:11:16.583Z,14.37
2022-10-13T00:13:45.851Z,15.17
2022-10-13T00:16:15.985Z,15.00
2022-10-13T00:18:45.695Z,15.70
2022-10-13T00:21:17.494Z,15.63
2022-10-13T00:23:48.059Z,16.03
2022-10-13T00:26:21.818Z,16.20
2022-10-13T00:28:55.669Z,15.07
2022-10-13T00:31:26.406Z,14.80
2022-10-13T00:33:55.986Z,15.13
2022-10-13T00:36:25.277Z,15.47
2022-10-13T00:38:54.006Z,15.03
2022-10-13T00:41:22.592Z,14.20
2022-10-13T00:43:55.414Z,12.97
2022-10-13T00:46:49.951Z,14.93
2022-10-13T00:49:19.481Z,14.50
2022-10-13T00:51:50.473Z,13.30
2022-10-13T00:54:23.154Z,14.37
2022-10-13T00:56:53.236Z,13.80
2022-10-13T00:59:24.742Z,14.97
2022-10-13T01:01:54.755Z,14.53
2022-10-13T01:04:26.615Z,14.63
2022-10-13T01:06:55.220Z,15.10
2022-10-13T01:09:22.981Z,14.00
2022-10-13T01:12:03.740Z,14.93
2022-10-13T01:14:37.366Z,13.23
2022-10-13T01:17:16.944Z,13.73
2022-10-13T01:20:10.666Z,14.30
2022-10-13T01:22:56.785Z,13.83
2022-10-13T01:25:43.263Z,13.27
2022-10-13T01:28:28.973Z,14.00
2022-10-13T01:31:05.162Z,15.17
2022-10-13T01:33:42.355Z,14.57
2022-10-13T01:36:20.836Z,14.40
2022-10-13T01:38:56.419Z,15.07
2022-10-13T01:41:29.819Z,13.60
2022-10-13T01:44:05.106Z,13.27
2022-10-13T01:46:37.865Z,13.80
2022-10-13T01:49:08.804Z,13.33
2022-10-13T01:51:37.598Z,15.43
2022-10-13T01:54:05.573Z,15.03
2022-10-13T01:56:33.649Z,14.03
2022-10-13T01:59:06.153Z,14.80
2022-10-13T02:01:58.722Z,15.00
2022-10-13T02:04:38.242Z,14.40
2022-10-13T02:07:12.354Z,14.93
2022-10-13T02:09:48.887Z,15.53
2022-10-13T02:12:24.206Z,15.40
2022-10-13T02:14:54.150Z,16.17
2022-10-13T02:17:23.842Z,16.03
2022-10-13T02:19:51.630Z,16.10
2022-10-13T02:22:20.690Z,15.00
2022-10-13T02:24:48.854Z,14.30
2022-10-13T02:27:17.289Z,13.90
2022-10-13T02:29:52.892Z,12.43
2022-10-13T08:39:17.895Z,16.47
2022-10-13T08:41:47.096Z,18.17
2022-10-13T08:47:19.189Z,17.90
2022-10-13T08:49:47.483Z,15.30
2022-10-13T08:52:20.857Z,16.00
2022-10-13T08:54:49.617Z,16.13
2022-10-13T08:57:19.693Z,14.60
2022-10-13T08:59:48.075Z,15.77
2022-10-13T09:02:22.831Z,15.77
2022-10-13T09:04:53.291Z,13.90
2022-10-13T09:07:24.046Z,15.63
2022-10-13T09:09:52.973Z,13.33
2022-10-13T09:12:24.878Z,13.27
2022-10-13T09:15:01.467Z,12.13
2022-10-13T09:17:30.817Z,13.30
2022-10-13T09:20:00.770Z,13.10
2022-10-13T09:22:30.204Z,13.97
2022-10-13T09:25:19.275Z,11.87
2022-10-13T09:27:50.425Z,11.33
2022-10-13T09:30:31.770Z,11.73
2022-10-13T09:33:22.010Z,12.00
2022-10-13T09:36:06.695Z,10.40
2022-10-13T09:38:35.835Z,12.53
2022-10-13T09:41:06.803Z,10.63
2022-10-13T09:43:41.840Z,10.10
2022-10-13T09:46:19.498Z,11.07
2022-10-13T09:48:51.641Z,10.87
2022-10-13T09:51:34.283Z,10.70
2022-10-13T09:54:29.890Z,11.27
2022-10-13T09:57:02.328Z,10.73
2022-10-13T09:59:36.420Z,11.53
2022-10-13T10:02:20.358Z,9.27
2022-10-13T10:04:51.785Z,10.57
2022-10-13T10:07:26.651Z,9.67
2022-10-13T10:10:01.712Z,10.47
2022-10-13T10:12:32.268Z,10.10
2022-10-13T10:15:01.892Z,9.30
2022-10-13T10:17:37.916Z,10.63
2022-10-13T10:20:22.833Z,10.90
2022-10-13T10:22:57.918Z,10.03
2022-10-13T10:25:34.731Z,9.57
2022-10-13T10:28:18.813Z,9.23
2022-10-13T10:30:52.892Z,10.00
2022-10-13T10:33:22.941Z,10.17
2022-10-13T10:35:56.847Z,10.17
2022-10-13T10:38:35.798Z,11.37
2022-10-13T10:41:13.872Z,10.03
2022-10-13T10:43:50.681Z,10.53
2022-10-13T10:46:22.584Z,10.30
2022-10-13T10:48:54.045Z,10.07
2022-10-13T10:51:26.350Z,10.13
2022-10-13T10:54:00.301Z,8.80
2022-10-13T10:56:34.985Z,8.20
2022-10-13T10:59:23.259Z,9.33
2022-10-13T11:02:03.619Z,9.37
2022-10-13T11:04:41.198Z,8.67
2022-10-13T11:07:13.189Z,9.20
2022-10-13T11:10:04.642Z,8.53
2022-10-13T11:13:22.118Z,9.37
2022-10-13T11:15:50.135Z,9.10
2022-10-13T11:18:58.937Z,9.67
2022-10-13T11:22:06.453Z,9.10
2022-10-13T11:24:59.433Z,8.33
2022-10-13T11:27:41.490Z,8.73
2022-10-13T11:30:47.369Z,8.60
2022-10-13T11:33:34.418Z,9.03
2022-10-13T11:36:43.650Z,9.87
2022-10-13T11:40:02.250Z,8.33
2022-10-13T11:42:56.869Z,8.07
2022-10-13T11:45:54.054Z,9.30
2022-10-13T11:49:06.139Z,8.40
2022-10-13T11:51:43.288Z,8.30
2022-10-13T11:54:22.522Z,7.90
2022-10-13T11:56:52.236Z,8.63
2022-10-13T11:59:27.490Z,8.17
2022-10-13T12:01:56.632Z,6.83
2022-10-13T12:04:26.509Z,7.47
2022-10-13T12:07:01.669Z,7.53
2022-10-13T12:09:32.016Z,8.03
2022-10-13T12:12:03.359Z,7.77
2022-10-13T12:17:23.824Z,6.80
2022-10-13T12:19:53.617Z,7.60
2022-10-13T12:22:21.393Z,7.00
2022-10-13T12:24:58.995Z,7.20
2022-10-13T12:27:27.477Z,8.33
2022-10-13T12:29:56.627Z,8.60
2022-10-13T12:32:26.627Z,7.03
2022-10-13T12:34:54.425Z,7.50
2022-10-13T12:37:30.925Z,7.00
2022-10-13T12:39:59.701Z,9.20
2022-10-13T12:42:32.417Z,9.50
2022-10-13T12:45:02.969Z,6.73
2022-10-13T12:47:46.936Z,7.30
2022-10-13T12:50:34.362Z,6.80
2022-10-13T12:53:22.748Z,7.93
2022-10-13T12:55:55.188Z,7.00
2022-10-13T12:58:26.323Z,7.87
2022-10-13T13:01:07.530Z,7.43
2022-10-13T13:03:38.714Z,7.30
2022-10-13T13:06:12.491Z,7.47
2022-10-13T13:08:41.804Z,8.83
2022-10-13T13:11:22.417Z,7.50
2022-10-13T13:13:50.436Z,7.40
2022-10-13T13:16:21.726Z,8.60
2022-10-13T13:18:50.336Z,6.50
2022-10-13T13:21:21.031Z,8.57
2022-10-13T13:23:53.683Z,9.20
2022-10-13T13:26:23.339Z,9.40
2022-10-13T13:28:53.092Z,9.00
2022-10-13T13:31:24.941Z,7.70
2022-10-13T13:33:53.794Z,6.93
2022-10-13T13:36:24.274Z,7.23
2022-10-13T13:38:55.878Z,7.50
2022-10-13T13:41:24.104Z,7.30
2022-10-13T13:43:51.828Z,7.87
2022-10-13T13:46:24.376Z,6.43
2022-10-13T13:48:53.931Z,6.90
2022-10-13T13:51:21.637Z,6.03
2022-10-13T13:53:49.288Z,6.87
2022-10-13T13:56:19.643Z,7.07
2022-10-13T13:58:47.935Z,7.17
2022-10-13T14:01:16.322Z,6.00
2022-10-13T14:03:45.430Z,6.00
2022-10-13T14:06:20.596Z,6.37
2022-10-13T14:08:48.381Z,5.70
2022-10-13T14:11:16.373Z,7.07
2022-10-13T14:13:44.040Z,7.27
2022-10-13T14:16:17.719Z,5.83
2022-10-13T14:18:46.807Z,5.63
2022-10-13T14:21:14.672Z,6.30
2022-10-13T14:23:46.796Z,5.87
2022-10-13T14:26:14.957Z,5.30
2022-10-13T14:28:43.159Z,5.37
2022-10-13T14:31:11.934Z,6.27
2022-10-13T14:33:41.778Z,6.67
2022-10-13T14:36:11.498Z,6.63
2022-10-13T14:38:39.167Z,6.07
2022-10-13T14:41:07.652Z,5.60
2022-10-13T14:43:35.323Z,5.20
2022-10-13T14:46:03.571Z,5.10
2022-10-13T14:48:31.969Z,5.30
2022-10-13T14:51:00.150Z,5.50
2022-10-13T14:53:30.250Z,5.90
2022-10-13T14:55:57.948Z,6.03
2022-10-13T14:58:26.765Z,5.30
2022-10-13T15:00:55.513Z,6.03
2022-10-13T15:03:23.483Z,6.40
2022-10-13T15:05:51.206Z,5.93
2022-10-13T15:08:26.379Z,5.53
2022-10-13T15:11:01.348Z,6.13
2022-10-13T15:13:29.467Z,6.23
2022-10-13T15:16:00.870Z,6.37
2022-10-13T15:18:29.450Z,6.27
2022-10-13T15:20:57.350Z,6.13
2022-10-13T15:23:25.353Z,5.33
2022-10-13T15:25:54.424Z,5.13
2022-10-13T15:28:23.907Z,7.03
2022-10-13T15:30:52.578Z,6.00
2022-10-13T15:33:23.102Z,6.07
2022-10-13T15:35:51.769Z,5.60
2022-10-13T15:38:21.003Z,5.67
2022-10-13T15:40:49.269Z,5.00
2022-10-13T15:43:17.466Z,5.30
2022-10-13T15:45:55.418Z,4.90
2022-10-13T15:48:23.301Z,5.10
2022-10-13T15:50:50.999Z,5.97
2022-10-13T15:53:20.141Z,5.83
2022-10-13T15:55:48.245Z,5.67
2022-10-13T15:58:16.058Z,5.33
2022-10-13T16:00:43.939Z,5.70
2022-10-13T16:03:16.316Z,5.97
2022-10-13T16:05:44.852Z,6.63
2022-10-13T16:08:13.234Z,5.30
2022-10-13T16:10:41.671Z,6.30
2022-10-13T16:13:12.510Z,5.50
2022-10-13T16:15:40.250Z,5.33
2022-10-13T16:18:08.424Z,5.70
2022-10-13T16:20:39.314Z,6.37
2022-10-13T16:23:07.027Z,6.20
2022-10-13T16:25:34.695Z,6.07
2022-10-13T16:28:02.345Z,5.33
2022-10-13T16:30:30.786Z,6.70
2022-10-13T16:32:58.788Z,6.13
2022-10-13T16:35:26.539Z,6.50
2022-10-13T16:37:55.623Z,6.53
2022-10-13T16:40:24.612Z,6.17
2022-10-13T16:42:52.323Z,6.00
2022-10-13T16:45:35.460Z,6.07
2022-10-13T16:48:08.062Z,6.00
2022-10-13T16:50:38.437Z,6.97
2022-10-13T16:53:07.640Z,8.07
2022-10-13T16:55:35.355Z,7.57
2022-10-13T16:58:03.024Z,8.37
2022-10-13T17:00:30.785Z,6.60
2022-10-13T17:02:58.562Z,7.40
2022-10-13T17:05:26.784Z,8.00
2022-10-13T17:07:54.571Z,8.00
2022-10-13T17:10:23.672Z,8.10
2022-10-13T17:12:52.711Z,7.70
2022-10-13T17:15:20.369Z,6.70
2022-10-13T17:17:48.051Z,7.93
2022-10-13T17:20:15.743Z,6.23
2022-10-13T17:22:44.990Z,6.47
2022-10-13T17:25:13.457Z,7.10
2022-10-13T17:27:42.504Z,7.20
2022-10-13T17:30:11.902Z,8.10
2022-10-13T17:32:40.063Z,7.80
2022-10-13T17:35:11.293Z,8.60
2022-10-13T17:37:39.065Z,8.00
2022-10-13T17:40:07.849Z,7.70
2022-10-13T17:42:35.678Z,6.70
2022-10-13T17:45:05.195Z,6.70
2022-10-13T17:47:32.921Z,7.93
2022-10-13T17:50:00.602Z,7.23
2022-10-13T17:52:28.342Z,7.23
2022-10-13T17:54:56.632Z,7.33
2022-10-13T17:57:24.596Z,7.77
2022-10-13T17:59:54.857Z,6.83
2022-10-13T18:02:23.951Z,7.13
2022-10-13T18:04:51.700Z,7.47
2022-10-13T18:07:19.744Z,7.40
2022-10-13T18:09:47.877Z,7.60
2022-10-13T18:12:15.711Z,6.90
2022-10-13T18:14:43.665Z,7.70
2022-10-13T18:17:11.642Z,7.50
2022-10-13T18:19:40.872Z,8.37
2022-10-13T18:22:08.508Z,8.67
2022-10-13T18:24:36.390Z,7.37
2022-10-13T18:27:04.709Z,7.03
2022-10-13T18:29:36.313Z,7.83
2022-10-13T18:32:04.436Z,7.80
2022-10-13T18:34:32.202Z,7.20
2022-10-13T18:37:01.413Z,7.93
2022-10-13T18:39:30.196Z,8.13
2022-10-13T18:41:58.661Z,6.57
2022-10-13T18:44:34.924Z,7.37
2022-10-13T18:47:03.045Z,6.77
2022-10-13T18:49:34.013Z,8.40
2022-10-13T18:52:03.572Z,8.10
2022-10-13T18:54:31.410Z,7.60
2022-10-13T18:57:00.261Z,6.97
2022-10-13T18:59:28.115Z,7.67
2022-10-13T19:01:56.032Z,8.17
2022-10-13T19:04:23.886Z,7.37
2022-10-13T19:06:51.539Z,8.37
2022-10-13T19:09:21.567Z,8.90
2022-10-13T19:11:49.291Z,7.90
2022-10-13T19:14:17.342Z,9.20
2022-10-13T19:16:45.217Z,9.27
2022-10-13T19:19:13.331Z,8.97
2022-10-13T19:21:41.729Z,8.40
2022-10-13T19:24:10.178Z,9.17
2022-10-13T19:26:39.820Z,8.00
2022-10-13T19:29:10.006Z,8.40
2022-10-13T19:31:39.720Z,9.03
2022-10-13T19:34:10.616Z,9.80
2022-10-13T19:36:43.373Z,8.40
2022-10-13T19:39:15.334Z,9.07
2022-10-13T19:41:45.073Z,9.77
2022-10-13T19:44:13.661Z,8.70
2022-10-13T19:46:42.450Z,8.60
2022-10-13T19:49:11.756Z,9.90
2022-10-13T19:51:45.828Z,9.23
2022-10-13T19:54:14.322Z,8.83
2022-10-13T19:56:46.203Z,9.30
2022-10-13T19:59:14.280Z,8.80
2022-10-13T20:01:42.091Z,9.93
2022-10-13T20:04:14.286Z,9.00
2022-10-13T20:06:44.370Z,10.47
2022-10-13T20:09:12.062Z,10.90
2022-10-13T20:11:39.756Z,9.43
2022-10-13T20:14:08.768Z,9.27
2022-10-13T20:16:37.778Z,9.70
2022-10-13T20:19:05.464Z,11.03
2022-10-13T20:21:33.326Z,8.60
2022-10-13T20:24:01.032Z,7.80
2022-10-13T20:26:29.067Z,9.70
2022-10-13T20:28:58.070Z,8.97
2022-10-13T20:31:27.659Z,8.30
2022-10-13T20:33:56.708Z,8.60
2022-10-13T20:36:26.162Z,8.60
2022-10-13T20:38:53.882Z,9.83
2022-10-13T20:41:23.344Z,9.43
2022-10-13T20:43:51.166Z,10.57
2022-10-13T20:46:20.530Z,8.83
2022-10-13T20:49:09.907Z,9.60
2022-10-13T20:51:37.932Z,9.53
2022-10-13T20:54:06.119Z,10.57
2022-10-13T20:56:33.820Z,9.63
2022-10-13T20:59:03.427Z,8.90
2022-10-13T21:01:31.140Z,9.20
2022-10-13T21:04:00.220Z,8.60
2022-10-13T21:06:28.100Z,9.20
2022-10-13T21:08:57.341Z,9.13
2022-10-13T21:11:25.730Z,9.27
2022-10-13T21:13:53.641Z,8.63
2022-10-13T21:16:23.440Z,9.23
2022-10-13T21:18:52.779Z,11.67
2022-10-13T21:21:23.861Z,10.37
2022-10-13T21:23:52.687Z,9.23
2022-10-13T21:26:22.067Z,9.50
2022-10-13T21:28:50.681Z,9.07
2022-10-13T21:31:20.431Z,8.80
2022-10-13T21:33:48.730Z,8.70
2022-10-13T21:36:19.326Z,8.50
2022-10-13T21:38:51.454Z,9.23
2022-10-13T21:41:19.381Z,8.60
2022-10-13T21:43:47.867Z,9.50
2022-10-13T21:46:17.581Z,9.07
2022-10-13T21:48:46.622Z,7.60
2022-10-13T21:51:15.738Z,9.63
2022-10-13T21:53:43.920Z,7.80
2022-10-13T21:56:12.947Z,7.73
2022-10-13T21:58:40.822Z,8.47
2022-10-13T22:01:08.834Z,8.33
2022-10-13T22:03:36.662Z,9.30
2022-10-13T22:06:08.573Z,8.33
2022-10-13T22:08:39.017Z,9.77
2022-10-13T22:11:17.294Z,9.67
2022-10-13T22:13:44.972Z,9.90
2022-10-13T22:16:15.364Z,8.53
2022-10-13T22:18:45.375Z,8.87
2022-10-13T22:21:15.258Z,9.37
2022-10-13T22:23:43.049Z,10.70
2022-10-13T22:26:11.521Z,10.60
2022-10-13T22:28:40.854Z,8.50
2022-10-13T22:31:11.304Z,8.97
2022-10-13T22:33:40.566Z,6.40
2022-10-13T22:36:09.418Z,7.20
2022-10-13T22:38:37.396Z,6.20
2022-10-13T22:41:12.951Z,6.17
2022-10-13T22:43:43.043Z,5.43
2022-10-13T22:46:14.783Z,5.13
2022-10-13T22:48:43.046Z,4.70
2022-10-13T22:51:13.145Z,4.40
2022-10-13T22:53:41.132Z,5.47
2022-10-13T22:56:10.748Z,3.53
2022-10-13T22:58:38.938Z,4.33
2022-10-13T23:01:09.575Z,3.70
2022-10-13T23:03:38.185Z,4.30
2022-10-13T23:06:07.368Z,3.77
2022-10-13T23:08:36.129Z,4.57
2022-10-13T23:11:03.758Z,3.67
2022-10-13T23:13:31.468Z,4.00
2022-10-13T23:16:02.231Z,3.70
2022-10-13T23:18:36.256Z,3.80
2022-10-13T23:21:06.263Z,3.77
2022-10-13T23:23:34.961Z,3.50
2022-10-13T23:26:04.658Z,3.80
2022-10-13T23:28:32.957Z,4.90
2022-10-13T23:31:03.127Z,4.40
2022-10-13T23:33:31.532Z,3.90
2022-10-13T23:36:02.021Z,4.70
2022-10-13T23:38:31.448Z,4.43
2022-10-13T23:41:03.586Z,4.23
2022-10-13T23:43:31.279Z,4.60
2022-10-13T23:45:58.948Z,3.93
2022-10-13T23:48:26.914Z,4.70
2022-10-13T23:50:54.594Z,3.77
2022-10-13T23:53:23.747Z,4.30
2022-10-13T23:55:51.470Z,4.23
2022-10-13T23:58:25.194Z,4.07
